sensor_id;sensor_type;location;lat;lon;timestamp;P1;durP1;ratioP1;P2;durP2;ratioP2
45224;SDS011;30963;48.696;8.764;2022-07-17T00:01:28;8.13;;;5.20;;
45224;SDS011;30963;48.696;8.764;2022-07-17T00:03:56;5.88;;;4.85;;
45224;SDS011;30963;48.696;8.764;2022-07-17T00:06:22;5.97;;;5.00;;
45224;SDS011;30963;48.696;8.764;2022-07-17T00:08:51;5.20;;;4.70;;
45224;SDS011;30963;48.696;8.764;2022-07-17T00:11:17;5.20;;;4.80;;
45224;SDS011;30963;48.696;8.764;2022-07-17T00:13:46;5.15;;;4.75;;
45224;SDS011;30963;48.696;8.764;2022-07-17T00:16:11;6.82;;;4.72;;
45224;SDS011;30963;48.696;8.764;2022-07-17T00:18:37;7.03;;;5.10;;
45224;SDS011;30963;48.696;8.764;2022-07-17T00:21:06;5.50;;;4.97;;
45224;SDS011;30963;48.696;8.764;2022-07-17T00:23:32;4.85;;;4.45;;
45224;SDS011;30963;48.696;8.764;2022-07-17T00:25:58;5.63;;;5.03;;
45224;SDS011;30963;48.696;8.764;2022-07-17T00:28:24;6.15;;;4.68;;
45224;SDS011;30963;48.696;8.764;2022-07-17T00:30:52;5.38;;;4.88;;
45224;SDS011;30963;48.696;8.764;2022-07-17T00:33:18;5.47;;;4.97;;
45224;SDS011;30963;48.696;8.764;2022-07-17T00:35:44;5.65;;;4.88;;
45224;SDS011;30963;48.696;8.764;2022-07-17T00:38:13;5.78;;;5.10;;
45224;SDS011;30963;48.696;8.764;2022-07-17T00:40:40;5.68;;;5.18;;
45224;SDS011;30963;48.696;8.764;2022-07-17T00:43:06;5.30;;;4.85;;
45224;SDS011;30963;48.696;8.764;2022-07-17T00:45:32;6.10;;;4.95;;
45224;SDS011;30963;48.696;8.764;2022-07-17T00:48:03;5.50;;;5.00;;
45224;SDS011;30963;48.696;8.764;2022-07-17T00:50:33;6.82;;;5.25;;
45224;SDS011;30963;48.696;8.764;2022-07-17T00:52:59;5.85;;;5.25;;
45224;SDS011;30963;48.696;8.764;2022-07-17T00:55:28;4.95;;;4.45;;
45224;SDS011;30963;48.696;8.764;2022-07-17T00:57:54;5.68;;;5.05;;
45224;SDS011;30963;48.696;8.764;2022-07-17T01:00:21;5.78;;;4.78;;
45224;SDS011;30963;48.696;8.764;2022-07-17T01:02:48;5.35;;;4.90;;
45224;SDS011;30963;48.696;8.764;2022-07-17T01:05:15;5.78;;;4.97;;
45224;SDS011;30963;48.696;8.764;2022-07-17T01:07:41;5.70;;;5.03;;
45224;SDS011;30963;48.696;8.764;2022-07-17T01:10:07;5.47;;;4.97;;
45224;SDS011;30963;48.696;8.764;2022-07-17T01:12:33;6.88;;;5.63;;
45224;SDS011;30963;48.696;8.764;2022-07-17T01:15:02;8.02;;;5.13;;
45224;SDS011;30963;48.696;8.764;2022-07-17T01:17:29;6.03;;;5.50;;
45224;SDS011;30963;48.696;8.764;2022-07-17T01:19:55;5.97;;;5.38;;
45224;SDS011;30963;48.696;8.764;2022-07-17T01:22:26;7.57;;;5.53;;
45224;SDS011;30963;48.696;8.764;2022-07-17T01:24:54;6.32;;;5.72;;
45224;SDS011;30963;48.696;8.764;2022-07-17T01:27:20;7.25;;;5.43;;
45224;SDS011;30963;48.696;8.764;2022-07-17T01:29:46;5.55;;;5.10;;
45224;SDS011;30963;48.696;8.764;2022-07-17T01:32:12;9.93;;;5.65;;
45224;SDS011;30963;48.696;8.764;2022-07-17T01:34:38;8.07;;;5.55;;
45224;SDS011;30963;48.696;8.764;2022-07-17T01:37:04;6.07;;;5.47;;
45224;SDS011;30963;48.696;8.764;2022-07-17T01:39:30;5.05;;;4.65;;
45224;SDS011;30963;48.696;8.764;2022-07-17T01:42:15;5.28;;;4.78;;
45224;SDS011;30963;48.696;8.764;2022-07-17T01:44:41;5.70;;;4.80;;
45224;SDS011;30963;48.696;8.764;2022-07-17T01:47:07;5.43;;;4.97;;
45224;SDS011;30963;48.696;8.764;2022-07-17T01:49:33;5.80;;;5.18;;
45224;SDS011;30963;48.696;8.764;2022-07-17T01:51:59;5.60;;;5.10;;
45224;SDS011;30963;48.696;8.764;2022-07-17T01:54:28;5.88;;;5.32;;
45224;SDS011;30963;48.696;8.764;2022-07-17T01:56:54;5.50;;;5.00;;
45224;SDS011;30963;48.696;8.764;2022-07-17T01:59:20;5.63;;;5.13;;
45224;SDS011;30963;48.696;8.764;2022-07-17T02:01:46;5.50;;;5.00;;
45224;SDS011;30963;48.696;8.764;2022-07-17T02:04:12;5.75;;;5.25;;
45224;SDS011;30963;48.696;8.764;2022-07-17T02:06:38;5.57;;;5.07;;
45224;SDS011;30963;48.696;8.764;2022-07-17T02:09:04;7.32;;;5.32;;
45224;SDS011;30963;48.696;8.764;2022-07-17T02:11:30;5.38;;;4.93;;
45224;SDS011;30963;48.696;8.764;2022-07-17T02:13:56;5.82;;;5.20;;
45224;SDS011;30963;48.696;8.764;2022-07-17T02:16:22;5.78;;;5.22;;
45224;SDS011;30963;48.696;8.764;2022-07-17T02:18:48;6.05;;;5.55;;
45224;SDS011;30963;48.696;8.764;2022-07-17T02:21:17;5.80;;;5.30;;
45224;SDS011;30963;48.696;8.764;2022-07-17T02:23:45;5.97;;;5.47;;
45224;SDS011;30963;48.696;8.764;2022-07-17T02:26:11;5.38;;;4.88;;
45224;SDS011;30963;48.696;8.764;2022-07-17T02:28:37;6.00;;;5.50;;
45224;SDS011;30963;48.696;8.764;2022-07-17T02:31:03;7.53;;;5.30;;
45224;SDS011;30963;48.696;8.764;2022-07-17T02:33:29;5.43;;;4.93;;
45224;SDS011;30963;48.696;8.764;2022-07-17T02:35:55;5.70;;;5.20;;
45224;SDS011;30963;48.696;8.764;2022-07-17T02:38:21;6.20;;;5.13;;
45224;SDS011;30963;48.696;8.764;2022-07-17T02:40:47;6.70;;;5.97;;
45224;SDS011;30963;48.696;8.764;2022-07-17T02:43:15;7.82;;;5.68;;
45224;SDS011;30963;48.696;8.764;2022-07-17T02:45:41;5.95;;;5.45;;
45224;SDS011;30963;48.696;8.764;2022-07-17T02:48:07;5.75;;;5.25;;
45224;SDS011;30963;48.696;8.764;2022-07-17T02:50:36;6.25;;;5.65;;
45224;SDS011;30963;48.696;8.764;2022-07-17T02:53:02;7.03;;;5.72;;
45224;SDS011;30963;48.696;8.764;2022-07-17T02:55:28;6.10;;;5.65;;
45224;SDS011;30963;48.696;8.764;2022-07-17T02:57:53;6.07;;;5.45;;
45224;SDS011;30963;48.696;8.764;2022-07-17T03:00:19;6.00;;;5.50;;
45224;SDS011;30963;48.696;8.764;2022-07-17T03:02:46;6.10;;;5.55;;
45224;SDS011;30963;48.696;8.764;2022-07-17T03:05:13;6.10;;;5.60;;
45224;SDS011;30963;48.696;8.764;2022-07-17T03:07:39;5.72;;;5.25;;
45224;SDS011;30963;48.696;8.764;2022-07-17T03:10:06;7.18;;;6.03;;
45224;SDS011;30963;48.696;8.764;2022-07-17T03:12:34;6.47;;;5.95;;
45224;SDS011;30963;48.696;8.764;2022-07-17T03:15:00;6.47;;;5.70;;
45224;SDS011;30963;48.696;8.764;2022-07-17T03:17:27;6.38;;;5.78;;
45224;SDS011;30963;48.696;8.764;2022-07-17T03:19:53;6.28;;;5.78;;
45224;SDS011;30963;48.696;8.764;2022-07-17T03:22:19;6.10;;;5.70;;
45224;SDS011;30963;48.696;8.764;2022-07-17T03:24:47;6.15;;;5.60;;
45224;SDS011;30963;48.696;8.764;2022-07-17T03:27:15;6.80;;;6.07;;
45224;SDS011;30963;48.696;8.764;2022-07-17T03:29:42;6.30;;;5.75;;
45224;SDS011;30963;48.696;8.764;2022-07-17T03:32:08;6.78;;;6.07;;
45224;SDS011;30963;48.696;8.764;2022-07-17T03:34:39;6.22;;;5.70;;
45224;SDS011;30963;48.696;8.764;2022-07-17T03:37:05;6.45;;;5.88;;
45224;SDS011;30963;48.696;8.764;2022-07-17T03:39:33;6.40;;;5.90;;
45224;SDS011;30963;48.696;8.764;2022-07-17T03:42:02;6.75;;;6.25;;
45224;SDS011;30963;48.696;8.764;2022-07-17T03:44:28;7.25;;;6.50;;
45224;SDS011;30963;48.696;8.764;2022-07-17T03:46:54;6.97;;;5.72;;
45224;SDS011;30963;48.696;8.764;2022-07-17T03:49:20;6.57;;;6.00;;
45224;SDS011;30963;48.696;8.764;2022-07-17T03:51:46;7.63;;;6.80;;
45224;SDS011;30963;48.696;8.764;2022-07-17T03:54:14;6.45;;;5.85;;
45224;SDS011;30963;48.696;8.764;2022-07-17T03:56:43;6.97;;;6.38;;
45224;SDS011;30963;48.696;8.764;2022-07-17T03:59:09;7.07;;;6.47;;
45224;SDS011;30963;48.696;8.764;2022-07-17T04:01:35;6.65;;;6.15;;
45224;SDS011;30963;48.696;8.764;2022-07-17T04:04:01;7.05;;;6.45;;
45224;SDS011;30963;48.696;8.764;2022-07-17T04:06:27;6.50;;;6.00;;
45224;SDS011;30963;48.696;8.764;2022-07-17T04:08:53;6.70;;;6.20;;
45224;SDS011;30963;48.696;8.764;2022-07-17T04:11:19;6.40;;;5.72;;
45224;SDS011;30963;48.696;8.764;2022-07-17T04:13:45;6.47;;;5.85;;
45224;SDS011;30963;48.696;8.764;2022-07-17T04:16:11;7.10;;;6.32;;
45224;SDS011;30963;48.696;8.764;2022-07-17T04:18:37;6.28;;;5.78;;
45224;SDS011;30963;48.696;8.764;2022-07-17T04:21:07;7.05;;;6.45;;
45224;SDS011;30963;48.696;8.764;2022-07-17T04:23:34;6.55;;;6.05;;
45224;SDS011;30963;48.696;8.764;2022-07-17T04:26:00;6.90;;;6.30;;
45224;SDS011;30963;48.696;8.764;2022-07-17T04:28:26;7.55;;;6.85;;
45224;SDS011;30963;48.696;8.764;2022-07-17T04:30:52;7.25;;;6.55;;
45224;SDS011;30963;48.696;8.764;2022-07-17T04:33:18;6.72;;;5.68;;
45224;SDS011;30963;48.696;8.764;2022-07-17T04:35:44;7.82;;;7.13;;
45224;SDS011;30963;48.696;8.764;2022-07-17T04:38:10;7.85;;;7.00;;
45224;SDS011;30963;48.696;8.764;2022-07-17T04:40:37;6.85;;;6.22;;
45224;SDS011;30963;48.696;8.764;2022-07-17T04:43:04;7.10;;;6.50;;
45224;SDS011;30963;48.696;8.764;2022-07-17T04:45:30;7.55;;;6.80;;
45224;SDS011;30963;48.696;8.764;2022-07-17T04:47:56;7.63;;;6.93;;
45224;SDS011;30963;48.696;8.764;2022-07-17T04:50:25;8.70;;;7.28;;
45224;SDS011;30963;48.696;8.764;2022-07-17T04:52:51;7.30;;;6.70;;
45224;SDS011;30963;48.696;8.764;2022-07-17T04:55:19;7.38;;;6.78;;
45224;SDS011;30963;48.696;8.764;2022-07-17T04:57:48;7.70;;;7.00;;
45224;SDS011;30963;48.696;8.764;2022-07-17T05:00:16;7.25;;;6.65;;
45224;SDS011;30963;48.696;8.764;2022-07-17T05:02:42;6.93;;;6.22;;
45224;SDS011;30963;48.696;8.764;2022-07-17T05:05:09;6.75;;;6.25;;
45224;SDS011;30963;48.696;8.764;2022-07-17T05:07:37;7.10;;;6.32;;
45224;SDS011;30963;48.696;8.764;2022-07-17T05:10:04;8.07;;;7.38;;
45224;SDS011;30963;48.696;8.764;2022-07-17T05:12:30;7.65;;;7.00;;
45224;SDS011;30963;48.696;8.764;2022-07-17T05:14:56;7.18;;;6.57;;
45224;SDS011;30963;48.696;8.764;2022-07-17T05:17:23;8.25;;;7.45;;
45224;SDS011;30963;48.696;8.764;2022-07-17T05:19:49;7.40;;;6.75;;
45224;SDS011;30963;48.696;8.764;2022-07-17T05:22:15;7.53;;;6.93;;
45224;SDS011;30963;48.696;8.764;2022-07-17T05:24:41;7.57;;;6.88;;
45224;SDS011;30963;48.696;8.764;2022-07-17T05:27:07;7.22;;;6.60;;
45224;SDS011;30963;48.696;8.764;2022-07-17T05:29:33;6.82;;;6.32;;
45224;SDS011;30963;48.696;8.764;2022-07-17T05:31:59;7.07;;;6.47;;
45224;SDS011;30963;48.696;8.764;2022-07-17T05:34:25;6.55;;;6.05;;
45224;SDS011;30963;48.696;8.764;2022-07-17T05:36:51;5.95;;;5.55;;
45224;SDS011;30963;48.696;8.764;2022-07-17T05:39:17;6.75;;;6.15;;
45224;SDS011;30963;48.696;8.764;2022-07-17T05:41:43;6.53;;;6.00;;
45224;SDS011;30963;48.696;8.764;2022-07-17T05:44:11;6.15;;;5.70;;
45224;SDS011;30963;48.696;8.764;2022-07-17T05:46:37;9.15;;;6.00;;
45224;SDS011;30963;48.696;8.764;2022-07-17T05:49:05;8.80;;;6.07;;
45224;SDS011;30963;48.696;8.764;2022-07-17T05:51:34;6.30;;;5.90;;
45224;SDS011;30963;48.696;8.764;2022-07-17T05:54:00;6.20;;;5.70;;
45224;SDS011;30963;48.696;8.764;2022-07-17T05:56:26;7.05;;;6.55;;
45224;SDS011;30963;48.696;8.764;2022-07-17T05:58:53;6.32;;;5.80;;
45224;SDS011;30963;48.696;8.764;2022-07-17T06:01:19;5.93;;;5.43;;
45224;SDS011;30963;48.696;8.764;2022-07-17T06:03:45;6.20;;;5.60;;
45224;SDS011;30963;48.696;8.764;2022-07-17T06:06:13;6.03;;;5.43;;
45224;SDS011;30963;48.696;8.764;2022-07-17T06:08:39;5.95;;;5.45;;
45224;SDS011;30963;48.696;8.764;2022-07-17T06:11:06;5.97;;;5.40;;
45224;SDS011;30963;48.696;8.764;2022-07-17T06:13:32;5.55;;;4.97;;
45224;SDS011;30963;48.696;8.764;2022-07-17T06:16:00;6.10;;;5.60;;
45224;SDS011;30963;48.696;8.764;2022-07-17T06:18:26;6.15;;;5.68;;
45224;SDS011;30963;48.696;8.764;2022-07-17T06:20:55;5.55;;;5.03;;
45224;SDS011;30963;48.696;8.764;2022-07-17T06:23:20;4.65;;;4.35;;
45224;SDS011;30963;48.696;8.764;2022-07-17T06:25:46;5.72;;;5.32;;
45224;SDS011;30963;48.696;8.764;2022-07-17T06:28:15;5.63;;;5.13;;
45224;SDS011;30963;48.696;8.764;2022-07-17T06:30:43;5.05;;;4.55;;
45224;SDS011;30963;48.696;8.764;2022-07-17T06:33:12;4.90;;;4.60;;
45224;SDS011;30963;48.696;8.764;2022-07-17T06:35:38;5.70;;;5.15;;
45224;SDS011;30963;48.696;8.764;2022-07-17T06:38:03;5.97;;;5.25;;
45224;SDS011;30963;48.696;8.764;2022-07-17T06:40:30;5.03;;;4.53;;
45224;SDS011;30963;48.696;8.764;2022-07-17T06:42:56;5.15;;;4.85;;
45224;SDS011;30963;48.696;8.764;2022-07-17T06:45:22;5.03;;;4.40;;
45224;SDS011;30963;48.696;8.764;2022-07-17T06:47:48;5.43;;;4.95;;
45224;SDS011;30963;48.696;8.764;2022-07-17T06:50:16;7.22;;;4.50;;
45224;SDS011;30963;48.696;8.764;2022-07-17T06:52:42;4.80;;;4.50;;
45224;SDS011;30963;48.696;8.764;2022-07-17T06:55:08;4.75;;;4.43;;
45224;SDS011;30963;48.696;8.764;2022-07-17T06:57:36;4.97;;;4.50;;
45224;SDS011;30963;48.696;8.764;2022-07-17T07:00:03;4.35;;;3.97;;
45224;SDS011;30963;48.696;8.764;2022-07-17T07:02:29;5.50;;;3.97;;
45224;SDS011;30963;48.696;8.764;2022-07-17T07:04:58;4.38;;;3.97;;
45224;SDS011;30963;48.696;8.764;2022-07-17T07:07:24;4.00;;;3.70;;
45224;SDS011;30963;48.696;8.764;2022-07-17T07:09:50;4.53;;;4.18;;
45224;SDS011;30963;48.696;8.764;2022-07-17T07:12:16;4.60;;;4.10;;
45224;SDS011;30963;48.696;8.764;2022-07-17T07:14:42;4.20;;;3.90;;
45224;SDS011;30963;48.696;8.764;2022-07-17T07:17:08;4.57;;;3.88;;
45224;SDS011;30963;48.696;8.764;2022-07-17T07:19:34;4.05;;;3.70;;
45224;SDS011;30963;48.696;8.764;2022-07-17T07:22:00;4.90;;;3.85;;
45224;SDS011;30963;48.696;8.764;2022-07-17T07:24:26;3.88;;;3.60;;
45224;SDS011;30963;48.696;8.764;2022-07-17T07:26:52;3.85;;;3.55;;
45224;SDS011;30963;48.696;8.764;2022-07-17T07:29:18;4.25;;;3.85;;
45224;SDS011;30963;48.696;8.764;2022-07-17T07:31:48;4.15;;;3.70;;
45224;SDS011;30963;48.696;8.764;2022-07-17T07:34:14;4.55;;;3.67;;
45224;SDS011;30963;48.696;8.764;2022-07-17T07:36:40;4.40;;;3.97;;
45224;SDS011;30963;48.696;8.764;2022-07-17T07:39:06;4.05;;;3.67;;
45224;SDS011;30963;48.696;8.764;2022-07-17T07:41:32;3.72;;;3.42;;
45224;SDS011;30963;48.696;8.764;2022-07-17T07:43:58;3.88;;;3.55;;
45224;SDS011;30963;48.696;8.764;2022-07-17T07:46:26;4.20;;;3.55;;
45224;SDS011;30963;48.696;8.764;2022-07-17T07:48:52;4.38;;;3.45;;
45224;SDS011;30963;48.696;8.764;2022-07-17T07:51:18;3.85;;;3.47;;
45224;SDS011;30963;48.696;8.764;2022-07-17T07:53:44;4.20;;;3.72;;
45224;SDS011;30963;48.696;8.764;2022-07-17T07:56:10;4.10;;;3.70;;
45224;SDS011;30963;48.696;8.764;2022-07-17T07:58:37;4.22;;;3.83;;
45224;SDS011;30963;48.696;8.764;2022-07-17T08:01:06;3.97;;;3.50;;
45224;SDS011;30963;48.696;8.764;2022-07-17T08:03:32;4.22;;;3.17;;
45224;SDS011;30963;48.696;8.764;2022-07-17T08:06:00;3.78;;;3.40;;
45224;SDS011;30963;48.696;8.764;2022-07-17T08:08:26;3.40;;;3.10;;
45224;SDS011;30963;48.696;8.764;2022-07-17T08:10:52;3.92;;;3.10;;
45224;SDS011;30963;48.696;8.764;2022-07-17T08:13:18;4.25;;;3.20;;
45224;SDS011;30963;48.696;8.764;2022-07-17T08:15:44;3.90;;;3.60;;
45224;SDS011;30963;48.696;8.764;2022-07-17T08:18:11;3.38;;;3.17;;
45224;SDS011;30963;48.696;8.764;2022-07-17T08:20:37;4.05;;;3.15;;
45224;SDS011;30963;48.696;8.764;2022-07-17T08:23:05;3.63;;;3.33;;
45224;SDS011;30963;48.696;8.764;2022-07-17T08:25:34;3.47;;;3.17;;
45224;SDS011;30963;48.696;8.764;2022-07-17T08:28:00;3.67;;;3.10;;
45224;SDS011;30963;48.696;8.764;2022-07-17T08:30:26;3.60;;;3.30;;
45224;SDS011;30963;48.696;8.764;2022-07-17T08:32:52;4.03;;;3.45;;
45224;SDS011;30963;48.696;8.764;2022-07-17T08:35:18;3.47;;;3.17;;
45224;SDS011;30963;48.696;8.764;2022-07-17T08:37:48;3.83;;;3.40;;
45224;SDS011;30963;48.696;8.764;2022-07-17T08:40:17;3.63;;;3.33;;
45224;SDS011;30963;48.696;8.764;2022-07-17T08:42:48;3.30;;;3.10;;
45224;SDS011;30963;48.696;8.764;2022-07-17T08:45:19;3.55;;;3.25;;
45224;SDS011;30963;48.696;8.764;2022-07-17T08:47:45;3.50;;;3.30;;
45224;SDS011;30963;48.696;8.764;2022-07-17T08:50:12;3.53;;;3.22;;
45224;SDS011;30963;48.696;8.764;2022-07-17T08:52:41;3.40;;;3.20;;
45224;SDS011;30963;48.696;8.764;2022-07-17T08:55:08;5.32;;;3.33;;
45224;SDS011;30963;48.696;8.764;2022-07-17T08:57:38;3.70;;;3.40;;
45224;SDS011;30963;48.696;8.764;2022-07-17T09:00:07;4.07;;;3.20;;
45224;SDS011;30963;48.696;8.764;2022-07-17T09:02:35;4.93;;;3.20;;
45224;SDS011;30963;48.696;8.764;2022-07-17T09:05:01;5.28;;;3.28;;
45224;SDS011;30963;48.696;8.764;2022-07-17T09:07:27;3.58;;;3.17;;
45224;SDS011;30963;48.696;8.764;2022-07-17T09:09:53;3.70;;;3.40;;
45224;SDS011;30963;48.696;8.764;2022-07-17T09:12:24;3.78;;;3.47;;
45224;SDS011;30963;48.696;8.764;2022-07-17T09:14:51;3.38;;;3.08;;
45224;SDS011;30963;48.696;8.764;2022-07-17T09:17:17;3.63;;;3.33;;
45224;SDS011;30963;48.696;8.764;2022-07-17T09:19:45;6.28;;;3.22;;
45224;SDS011;30963;48.696;8.764;2022-07-17T09:22:18;3.70;;;3.40;;
45224;SDS011;30963;48.696;8.764;2022-07-17T09:27:32;3.10;;;2.80;;
45224;SDS011;30963;48.696;8.764;2022-07-17T09:32:27;4.20;;;3.05;;
45224;SDS011;30963;48.696;8.764;2022-07-17T09:34:55;4.07;;;3.40;;
45224;SDS011;30963;48.696;8.764;2022-07-17T09:37:25;3.30;;;3.00;;
45224;SDS011;30963;48.696;8.764;2022-07-17T09:39:52;3.13;;;2.92;;
45224;SDS011;30963;48.696;8.764;2022-07-17T09:42:24;3.00;;;2.80;;
45224;SDS011;30963;48.696;8.764;2022-07-17T09:44:54;3.47;;;2.83;;
45224;SDS011;30963;48.696;8.764;2022-07-17T09:47:23;2.92;;;2.72;;
45224;SDS011;30963;48.696;8.764;2022-07-17T09:49:50;3.15;;;2.85;;
45224;SDS011;30963;48.696;8.764;2022-07-17T09:52:16;4.80;;;3.50;;
45224;SDS011;30963;48.696;8.764;2022-07-17T09:54:45;3.42;;;3.00;;
45224;SDS011;30963;48.696;8.764;2022-07-17T09:57:13;3.22;;;3.03;;
45224;SDS011;30963;48.696;8.764;2022-07-17T09:59:39;3.50;;;3.13;;
45224;SDS011;30963;48.696;8.764;2022-07-17T10:02:05;3.15;;;2.95;;
45224;SDS011;30963;48.696;8.764;2022-07-17T10:04:34;3.28;;;3.08;;
45224;SDS011;30963;48.696;8.764;2022-07-17T10:07:01;4.32;;;3.13;;
45224;SDS011;30963;48.696;8.764;2022-07-17T10:09:27;2.85;;;2.65;;
45224;SDS011;30963;48.696;8.764;2022-07-17T10:11:56;3.53;;;3.03;;
45224;SDS011;30963;48.696;8.764;2022-07-17T10:14:22;3.22;;;3.03;;
45224;SDS011;30963;48.696;8.764;2022-07-17T10:16:48;2.97;;;2.70;;
45224;SDS011;30963;48.696;8.764;2022-07-17T10:19:21;3.10;;;2.90;;
45224;SDS011;30963;48.696;8.764;2022-07-17T10:24:22;2.92;;;2.65;;
45224;SDS011;30963;48.696;8.764;2022-07-17T10:26:51;3.47;;;3.10;;
45224;SDS011;30963;48.696;8.764;2022-07-17T10:29:30;3.03;;;2.70;;
45224;SDS011;30963;48.696;8.764;2022-07-17T10:32:03;3.38;;;3.03;;
45224;SDS011;30963;48.696;8.764;2022-07-17T10:37:13;3.40;;;3.10;;
45224;SDS011;30963;48.696;8.764;2022-07-17T10:39:39;4.10;;;2.92;;
45224;SDS011;30963;48.696;8.764;2022-07-17T10:42:08;3.03;;;2.78;;
45224;SDS011;30963;48.696;8.764;2022-07-17T10:44:36;3.05;;;2.72;;
45224;SDS011;30963;48.696;8.764;2022-07-17T10:47:02;2.90;;;2.70;;
45224;SDS011;30963;48.696;8.764;2022-07-17T10:49:28;3.08;;;2.88;;
45224;SDS011;30963;48.696;8.764;2022-07-17T10:51:54;4.10;;;3.20;;
45224;SDS011;30963;48.696;8.764;2022-07-17T10:54:20;3.55;;;3.30;;
45224;SDS011;30963;48.696;8.764;2022-07-17T10:56:59;3.17;;;2.90;;
45224;SDS011;30963;48.696;8.764;2022-07-17T10:59:26;2.90;;;2.70;;
45224;SDS011;30963;48.696;8.764;2022-07-17T11:01:55;3.10;;;2.90;;
45224;SDS011;30963;48.696;8.764;2022-07-17T11:04:22;2.80;;;2.60;;
45224;SDS011;30963;48.696;8.764;2022-07-17T11:06:48;3.38;;;3.10;;
45224;SDS011;30963;48.696;8.764;2022-07-17T11:09:16;3.17;;;2.97;;
45224;SDS011;30963;48.696;8.764;2022-07-17T11:11:46;3.13;;;2.92;;
45224;SDS011;30963;48.696;8.764;2022-07-17T11:14:20;3.70;;;3.13;;
45224;SDS011;30963;48.696;8.764;2022-07-17T11:16:50;3.33;;;3.03;;
45224;SDS011;30963;48.696;8.764;2022-07-17T11:19:26;3.20;;;2.90;;
45224;SDS011;30963;48.696;8.764;2022-07-17T11:21:52;3.03;;;2.83;;
45224;SDS011;30963;48.696;8.764;2022-07-17T11:24:22;3.05;;;2.85;;
45224;SDS011;30963;48.696;8.764;2022-07-17T11:26:49;3.58;;;2.88;;
45224;SDS011;30963;48.696;8.764;2022-07-17T11:29:16;3.22;;;3.03;;
45224;SDS011;30963;48.696;8.764;2022-07-17T11:31:42;3.55;;;3.30;;
45224;SDS011;30963;48.696;8.764;2022-07-17T11:34:09;3.13;;;2.92;;
45224;SDS011;30963;48.696;8.764;2022-07-17T11:36:45;5.70;;;5.03;;
45224;SDS011;30963;48.696;8.764;2022-07-17T11:39:15;3.53;;;3.33;;
45224;SDS011;30963;48.696;8.764;2022-07-17T11:41:49;3.05;;;2.60;;
45224;SDS011;30963;48.696;8.764;2022-07-17T11:44:19;3.38;;;3.10;;
45224;SDS011;30963;48.696;8.764;2022-07-17T11:46:47;3.92;;;3.08;;
45224;SDS011;30963;48.696;8.764;2022-07-17T11:49:29;3.42;;;3.13;;
45224;SDS011;30963;48.696;8.764;2022-07-17T11:51:56;3.03;;;2.83;;
45224;SDS011;30963;48.696;8.764;2022-07-17T11:54:23;3.90;;;3.05;;
45224;SDS011;30963;48.696;8.764;2022-07-17T11:56:53;3.30;;;3.10;;
45224;SDS011;30963;48.696;8.764;2022-07-17T11:59:26;3.42;;;3.10;;
45224;SDS011;30963;48.696;8.764;2022-07-17T12:01:52;3.33;;;2.95;;
45224;SDS011;30963;48.696;8.764;2022-07-17T12:04:18;3.28;;;3.00;;
45224;SDS011;30963;48.696;8.764;2022-07-17T12:06:46;2.75;;;2.60;;
45224;SDS011;30963;48.696;8.764;2022-07-17T12:09:12;2.95;;;2.75;;
45224;SDS011;30963;48.696;8.764;2022-07-17T12:11:45;2.85;;;2.65;;
45224;SDS011;30963;48.696;8.764;2022-07-17T12:14:12;2.80;;;2.55;;
45224;SDS011;30963;48.696;8.764;2022-07-17T12:16:38;2.88;;;2.67;;
45224;SDS011;30963;48.696;8.764;2022-07-17T12:19:11;3.45;;;2.70;;
45224;SDS011;30963;48.696;8.764;2022-07-17T12:21:56;3.25;;;2.95;;
45224;SDS011;30963;48.696;8.764;2022-07-17T12:24:24;3.65;;;2.97;;
45224;SDS011;30963;48.696;8.764;2022-07-17T12:26:51;3.83;;;2.65;;
45224;SDS011;30963;48.696;8.764;2022-07-17T12:29:17;2.95;;;2.70;;
45224;SDS011;30963;48.696;8.764;2022-07-17T12:31:45;3.03;;;2.83;;
45224;SDS011;30963;48.696;8.764;2022-07-17T12:34:12;2.88;;;2.67;;
45224;SDS011;30963;48.696;8.764;2022-07-17T12:36:38;2.65;;;2.45;;
45224;SDS011;30963;48.696;8.764;2022-07-17T12:39:04;3.00;;;2.80;;
45224;SDS011;30963;48.696;8.764;2022-07-17T12:41:30;3.63;;;3.00;;
45224;SDS011;30963;48.696;8.764;2022-07-17T12:43:56;3.20;;;3.00;;
45224;SDS011;30963;48.696;8.764;2022-07-17T12:46:22;4.60;;;2.83;;
45224;SDS011;30963;48.696;8.764;2022-07-17T12:48:50;2.60;;;2.40;;
45224;SDS011;30963;48.696;8.764;2022-07-17T12:51:17;2.80;;;2.60;;
45224;SDS011;30963;48.696;8.764;2022-07-17T12:53:45;4.35;;;2.88;;
45224;SDS011;30963;48.696;8.764;2022-07-17T12:56:11;2.80;;;2.60;;
45224;SDS011;30963;48.696;8.764;2022-07-17T12:58:37;2.70;;;2.50;;
45224;SDS011;30963;48.696;8.764;2022-07-17T13:01:04;2.70;;;2.50;;
45224;SDS011;30963;48.696;8.764;2022-07-17T13:03:31;2.72;;;2.53;;
45224;SDS011;30963;48.696;8.764;2022-07-17T13:06:00;3.08;;;2.40;;
45224;SDS011;30963;48.696;8.764;2022-07-17T13:08:27;3.38;;;2.90;;
45224;SDS011;30963;48.696;8.764;2022-07-17T13:10:53;2.90;;;2.70;;
45224;SDS011;30963;48.696;8.764;2022-07-17T13:13:19;2.92;;;2.60;;
45224;SDS011;30963;48.696;8.764;2022-07-17T13:15:45;3.50;;;2.47;;
45224;SDS011;30963;48.696;8.764;2022-07-17T13:18:11;2.90;;;2.70;;
45224;SDS011;30963;48.696;8.764;2022-07-17T13:20:37;2.85;;;2.65;;
45224;SDS011;30963;48.696;8.764;2022-07-17T13:23:03;2.88;;;2.58;;
45224;SDS011;30963;48.696;8.764;2022-07-17T13:25:31;2.70;;;2.45;;
45224;SDS011;30963;48.696;8.764;2022-07-17T13:27:57;2.70;;;2.50;;
45224;SDS011;30963;48.696;8.764;2022-07-17T13:30:23;3.33;;;2.42;;
45224;SDS011;30963;48.696;8.764;2022-07-17T13:32:50;2.85;;;2.65;;
45224;SDS011;30963;48.696;8.764;2022-07-17T13:35:16;3.50;;;2.78;;
45224;SDS011;30963;48.696;8.764;2022-07-17T13:37:43;2.88;;;2.67;;
45224;SDS011;30963;48.696;8.764;2022-07-17T13:40:09;3.38;;;2.67;;
45224;SDS011;30963;48.696;8.764;2022-07-17T13:42:38;2.40;;;2.30;;
45224;SDS011;30963;48.696;8.764;2022-07-17T13:45:04;3.70;;;3.05;;
45224;SDS011;30963;48.696;8.764;2022-07-17T13:47:33;2.95;;;2.67;;
45224;SDS011;30963;48.696;8.764;2022-07-17T13:49:59;3.22;;;2.95;;
45224;SDS011;30963;48.696;8.764;2022-07-17T13:52:25;2.80;;;2.58;;
45224;SDS011;30963;48.696;8.764;2022-07-17T13:54:51;2.80;;;2.60;;
45224;SDS011;30963;48.696;8.764;2022-07-17T13:57:17;2.78;;;2.58;;
45224;SDS011;30963;48.696;8.764;2022-07-17T13:59:43;2.55;;;2.35;;
45224;SDS011;30963;48.696;8.764;2022-07-17T14:02:09;3.15;;;2.92;;
45224;SDS011;30963;48.696;8.764;2022-07-17T14:04:38;2.90;;;2.70;;
45224;SDS011;30963;48.696;8.764;2022-07-17T14:07:05;3.50;;;2.95;;
45224;SDS011;30963;48.696;8.764;2022-07-17T14:09:33;3.05;;;2.65;;
45224;SDS011;30963;48.696;8.764;2022-07-17T14:11:59;2.85;;;2.65;;
45224;SDS011;30963;48.696;8.764;2022-07-17T14:14:25;5.15;;;3.20;;
45224;SDS011;30963;48.696;8.764;2022-07-17T14:16:52;4.10;;;3.80;;
45224;SDS011;30963;48.696;8.764;2022-07-17T14:19:18;2.85;;;2.65;;
45224;SDS011;30963;48.696;8.764;2022-07-17T14:21:44;3.22;;;2.40;;
45224;SDS011;30963;48.696;8.764;2022-07-17T14:24:10;2.80;;;2.60;;
45224;SDS011;30963;48.696;8.764;2022-07-17T14:26:36;2.90;;;2.70;;
45224;SDS011;30963;48.696;8.764;2022-07-17T14:29:04;2.70;;;2.50;;
45224;SDS011;30963;48.696;8.764;2022-07-17T14:31:35;2.97;;;2.78;;
45224;SDS011;30963;48.696;8.764;2022-07-17T14:34:01;2.90;;;2.70;;
45224;SDS011;30963;48.696;8.764;2022-07-17T14:36:27;3.20;;;2.90;;
45224;SDS011;30963;48.696;8.764;2022-07-17T14:38:53;2.75;;;2.55;;
45224;SDS011;30963;48.696;8.764;2022-07-17T14:41:19;3.90;;;3.70;;
45224;SDS011;30963;48.696;8.764;2022-07-17T14:43:46;3.60;;;3.40;;
45224;SDS011;30963;48.696;8.764;2022-07-17T14:46:12;5.15;;;4.55;;
45224;SDS011;30963;48.696;8.764;2022-07-17T14:48:38;3.05;;;2.85;;
45224;SDS011;30963;48.696;8.764;2022-07-17T14:51:04;5.55;;;3.10;;
45224;SDS011;30963;48.696;8.764;2022-07-17T14:53:33;3.25;;;2.88;;
45224;SDS011;30963;48.696;8.764;2022-07-17T14:55:59;2.80;;;2.60;;
45224;SDS011;30963;48.696;8.764;2022-07-17T14:58:25;2.90;;;2.72;;